sensor_id;sensor_type;location;lat;lon;timestamp;pressure;altitude;pressure_sealevel;temperature;humidity
35704;BME280;21820;51.112;13.762;2022-12-07T00:00:55;99172.97;;;21.03;62.99
35704;BME280;21820;51.112;13.762;2022-12-07T00:03:28;99173.78;;;21.03;63.51
35704;BME280;21820;51.112;13.762;2022-12-07T00:05:57;99164.97;;;21.04;63.82
35704;BME280;21820;51.112;13.762;2022-12-07T00:08:22;99168.56;;;21.03;63.65
35704;BME280;21820;51.112;13.762;2022-12-07T00:10:47;99150.16;;;20.95;63.88
35704;BME280;21820;51.112;13.762;2022-12-07T00:13:13;99162.09;;;21.07;63.04
35704;BME280;21820;51.112;13.762;2022-12-07T00:15:38;99162.91;;;21.08;63.73
35704;BME280;21820;51.112;13.762;2022-12-07T00:18:03;99169.78;;;21.09;63.60
35704;BME280;21820;51.112;13.762;2022-12-07T00:20:29;99163.28;;;21.13;64.04
35704;BME280;21820;51.112;13.762;2022-12-07T00:22:55;99160.22;;;21.17;64.85
35704;BME280;21820;51.112;13.762;2022-12-07T00:25:20;99165.66;;;21.24;64.41
35704;BME280;21820;51.112;13.762;2022-12-07T00:27:46;99157.72;;;21.25;64.09
35704;BME280;21820;51.112;13.762;2022-12-07T00:30:11;99151.13;;;21.21;64.21
35704;BME280;21820;51.112;13.762;2022-12-07T00:32:36;99152.75;;;21.22;64.09
35704;BME280;21820;51.112;13.762;2022-12-07T00:35:02;99141.50;;;21.22;63.78
35704;BME280;21820;51.112;13.762;2022-12-07T00:37:27;99145.59;;;21.24;64.45
35704;BME280;21820;51.112;13.762;2022-12-07T00:39:53;99140.50;;;21.23;63.74
35704;BME280;21820;51.112;13.762;2022-12-07T00:42:18;99145.59;;;21.24;64.15
35704;BME280;21820;51.112;13.762;2022-12-07T00:44:43;99139.91;;;21.29;63.93
35704;BME280;21820;51.112;13.762;2022-12-07T00:47:09;99136.50;;;21.28;64.33
35704;BME280;21820;51.112;13.762;2022-12-07T00:49:34;99142.66;;;21.27;64.30
35704;BME280;21820;51.112;13.762;2022-12-07T00:51:59;99144.50;;;21.27;63.80
35704;BME280;21820;51.112;13.762;2022-12-07T00:54:24;99137.75;;;21.24;64.50
35704;BME280;21820;51.112;13.762;2022-12-07T00:56:50;99137.91;;;21.23;64.24
35704;BME280;21820;51.112;13.762;2022-12-07T00:59:15;99130.44;;;21.28;64.76
35704;BME280;21820;51.112;13.762;2022-12-07T01:01:41;99138.44;;;21.26;63.22
35704;BME280;21820;51.112;13.762;2022-12-07T01:04:06;99138.56;;;21.07;63.12
35704;BME280;21820;51.112;13.762;2022-12-07T01:06:32;99135.03;;;20.99;62.94
35704;BME280;21820;51.112;13.762;2022-12-07T01:08:58;99128.38;;;21.04;63.42
35704;BME280;21820;51.112;13.762;2022-12-07T01:11:25;99138.91;;;21.12;62.75
35704;BME280;21820;51.112;13.762;2022-12-07T01:13:52;99137.75;;;21.24;62.16
35704;BME280;21820;51.112;13.762;2022-12-07T01:16:19;99135.06;;;21.34;61.59
35704;BME280;21820;51.112;13.762;2022-12-07T01:18:50;99130.31;;;21.47;61.69
35704;BME280;21820;51.112;13.762;2022-12-07T01:21:19;99131.84;;;21.57;61.52
35704;BME280;21820;51.112;13.762;2022-12-07T01:23:46;99123.91;;;21.67;61.08
35704;BME280;21820;51.112;13.762;2022-12-07T01:26:14;99128.41;;;21.74;60.27
35704;BME280;21820;51.112;13.762;2022-12-07T01:28:40;99119.44;;;21.77;60.79
35704;BME280;21820;51.112;13.762;2022-12-07T01:31:08;99115.72;;;21.79;60.25
35704;BME280;21820;51.112;13.762;2022-12-07T01:33:37;99121.75;;;21.80;60.24
35704;BME280;21820;51.112;13.762;2022-12-07T01:38:42;99123.16;;;21.74;60.27
35704;BME280;21820;51.112;13.762;2022-12-07T01:41:08;99128.19;;;21.68;60.53
35704;BME280;21820;51.112;13.762;2022-12-07T01:43:33;99122.22;;;21.58;60.78
35704;BME280;21820;51.112;13.762;2022-12-07T01:46:00;99131.00;;;21.57;61.41
35704;BME280;21820;51.112;13.762;2022-12-07T01:48:34;99130.78;;;21.50;61.40
35704;BME280;21820;51.112;13.762;2022-12-07T01:51:06;99128.78;;;21.44;61.83
35704;BME280;21820;51.112;13.762;2022-12-07T01:53:36;99121.56;;;21.38;61.75
35704;BME280;21820;51.112;13.762;2022-12-07T01:56:02;99121.47;;;21.30;62.02
35704;BME280;21820;51.112;13.762;2022-12-07T01:58:28;99111.22;;;21.19;62.15
35704;BME280;21820;51.112;13.762;2022-12-07T02:00:53;99127.44;;;21.23;62.45
35704;BME280;21820;51.112;13.762;2022-12-07T02:03:25;99104.44;;;21.09;62.64
35704;BME280;21820;51.112;13.762;2022-12-07T02:05:53;99132.44;;;21.16;62.83
35704;BME280;21820;51.112;13.762;2022-12-07T02:08:19;99125.84;;;21.12;62.71
35704;BME280;21820;51.112;13.762;2022-12-07T02:10:45;99126.16;;;21.09;62.85
35704;BME280;21820;51.112;13.762;2022-12-07T02:13:20;99118.22;;;21.01;63.23
35704;BME280;21820;51.112;13.762;2022-12-07T02:16:06;99121.69;;;21.02;63.28
35704;BME280;21820;51.112;13.762;2022-12-07T02:21:20;99126.50;;;20.97;63.69
35704;BME280;21820;51.112;13.762;2022-12-07T02:24:08;99120.72;;;20.93;63.55
35704;BME280;21820;51.112;13.762;2022-12-07T02:30:13;99112.22;;;20.91;63.18
35704;BME280;21820;51.112;13.762;2022-12-07T02:32:46;99120.03;;;20.91;64.10
35704;BME280;21820;51.112;13.762;2022-12-07T02:35:25;99113.88;;;20.92;63.94
35704;BME280;21820;51.112;13.762;2022-12-07T02:38:02;99093.84;;;20.83;63.65
35704;BME280;21820;51.112;13.762;2022-12-07T02:40:38;99095.75;;;20.81;63.78
35704;BME280;21820;51.112;13.762;2022-12-07T02:43:17;99106.97;;;20.91;63.20
35704;BME280;21820;51.112;13.762;2022-12-07T02:45:44;99090.63;;;20.89;62.96
35704;BME280;21820;51.112;13.762;2022-12-07T02:48:13;99100.84;;;21.10;62.67
35704;BME280;21820;51.112;13.762;2022-12-07T02:50:51;99101.97;;;21.25;62.78
35704;BME280;21820;51.112;13.762;2022-12-07T02:53:40;99097.66;;;21.33;62.08
35704;BME280;21820;51.112;13.762;2022-12-07T03:10:01;99073.28;;;21.76;60.21
35704;BME280;21820;51.112;13.762;2022-12-07T03:12:44;99073.44;;;21.74;60.95
35704;BME280;21820;51.112;13.762;2022-12-07T03:15:26;99067.03;;;21.69;60.75
35704;BME280;21820;51.112;13.762;2022-12-07T03:17:55;99065.19;;;21.61;61.20
35704;BME280;21820;51.112;13.762;2022-12-07T03:20:22;99063.53;;;21.60;61.18
35704;BME280;21820;51.112;13.762;2022-12-07T03:22:51;99068.53;;;21.54;61.33
35704;BME280;21820;51.112;13.762;2022-12-07T03:25:18;99068.34;;;21.47;61.97
35704;BME280;21820;51.112;13.762;2022-12-07T03:30:17;99061.56;;;21.37;62.14
35704;BME280;21820;51.112;13.762;2022-12-07T03:36:01;99059.84;;;21.28;62.41
35704;BME280;21820;51.112;13.762;2022-12-07T03:40:48;99061.16;;;21.49;61.98
35704;BME280;21820;51.112;13.762;2022-12-07T03:43:17;99055.97;;;21.75;60.80
35704;BME280;21820;51.112;13.762;2022-12-07T03:45:53;99050.69;;;21.92;60.39
35704;BME280;21820;51.112;13.762;2022-12-07T03:48:33;99055.19;;;22.08;59.93
35704;BME280;21820;51.112;13.762;2022-12-07T03:51:14;99051.84;;;22.24;59.08
35704;BME280;21820;51.112;13.762;2022-12-07T03:53:48;99048.94;;;22.35;59.23
35704;BME280;21820;51.112;13.762;2022-12-07T03:56:17;99041.97;;;22.51;58.70
35704;BME280;21820;51.112;13.762;2022-12-07T03:58:43;99051.69;;;22.59;58.16
35704;BME280;21820;51.112;13.762;2022-12-07T04:01:08;99044.50;;;22.61;58.41
35704;BME280;21820;51.112;13.762;2022-12-07T04:03:34;99039.44;;;22.67;57.86
35704;BME280;21820;51.112;13.762;2022-12-07T04:05:59;99040.25;;;22.76;57.25
35704;BME280;21820;51.112;13.762;2022-12-07T04:08:25;99040.91;;;22.78;57.34
35704;BME280;21820;51.112;13.762;2022-12-07T04:10:51;99041.25;;;22.75;57.59
35704;BME280;21820;51.112;13.762;2022-12-07T04:13:16;99037.97;;;22.73;57.64
35704;BME280;21820;51.112;13.762;2022-12-07T04:15:41;99015.81;;;22.59;57.61
35704;BME280;21820;51.112;13.762;2022-12-07T04:18:07;99016.31;;;22.63;57.62
35704;BME280;21820;51.112;13.762;2022-12-07T04:20:32;99002.47;;;22.45;58.60
35704;BME280;21820;51.112;13.762;2022-12-07T04:22:57;99026.56;;;22.48;58.56
35704;BME280;21820;51.112;13.762;2022-12-07T04:25:23;99019.50;;;22.41;59.05
35704;BME280;21820;51.112;13.762;2022-12-07T04:27:48;99016.72;;;22.34;59.12
35704;BME280;21820;51.112;13.762;2022-12-07T04:30:14;99018.78;;;22.23;59.37
35704;BME280;21820;51.112;13.762;2022-12-07T04:32:39;99014.47;;;22.14;60.01
35704;BME280;21820;51.112;13.762;2022-12-07T04:35:06;99010.50;;;22.02;60.34
35704;BME280;21820;51.112;13.762;2022-12-07T04:37:32;98990.97;;;21.88;60.56
35704;BME280;21820;51.112;13.762;2022-12-07T04:39:57;98990.31;;;21.86;60.65
35704;BME280;21820;51.112;13.762;2022-12-07T04:42:23;98999.44;;;21.82;60.32
35704;BME280;21820;51.112;13.762;2022-12-07T04:44:48;98989.72;;;21.74;61.15
35704;BME280;21820;51.112;13.762;2022-12-07T04:47:13;98989.38;;;21.69;61.20
35704;BME280;21820;51.112;13.762;2022-12-07T04:49:38;98996.19;;;21.62;60.83
35704;BME280;21820;51.112;13.762;2022-12-07T04:52:04;98994.19;;;21.56;61.01
35704;BME280;21820;51.112;13.762;2022-12-07T04:54:29;98994.78;;;21.50;61.58
35704;BME280;21820;51.112;13.762;2022-12-07T04:56:55;98987.56;;;21.44;61.83
35704;BME280;21820;51.112;13.762;2022-12-07T04:59:20;98988.34;;;21.37;61.97
35704;BME280;21820;51.112;13.762;2022-12-07T05:01:46;98968.50;;;21.26;61.92
35704;BME280;21820;51.112;13.762;2022-12-07T05:04:11;98969.16;;;21.28;62.52
35704;BME280;21820;51.112;13.762;2022-12-07T05:06:40;98967.81;;;21.24;62.18
35704;BME280;21820;51.112;13.762;2022-12-07T05:09:05;98964.84;;;21.19;62.66
35704;BME280;21820;51.112;13.762;2022-12-07T05:11:31;98970.38;;;21.16;62.54
35704;BME280;21820;51.112;13.762;2022-12-07T05:14:15;98967.41;;;21.11;63.27
35704;BME280;21820;51.112;13.762;2022-12-07T05:16:42;98969.31;;;21.09;62.78
35704;BME280;21820;51.112;13.762;2022-12-07T05:19:08;98972.25;;;21.06;62.81
35704;BME280;21820;51.112;13.762;2022-12-07T05:21:34;98964.56;;;21.05;62.89
35704;BME280;21820;51.112;13.762;2022-12-07T05:23:59;98969.63;;;21.06;62.82
35704;BME280;21820;51.112;13.762;2022-12-07T05:26:25;98965.25;;;21.07;63.28
35704;BME280;21820;51.112;13.762;2022-12-07T05:28:55;98962.16;;;21.11;62.72
35704;BME280;21820;51.112;13.762;2022-12-07T05:31:21;98960.75;;;21.17;62.57
35704;BME280;21820;51.112;13.762;2022-12-07T05:33:46;98966.19;;;21.23;62.30
35704;BME280;21820;51.112;13.762;2022-12-07T05:36:12;98962.47;;;21.34;62.26
35704;BME280;21820;51.112;13.762;2022-12-07T05:38:37;98959.63;;;21.45;62.10
35704;BME280;21820;51.112;13.762;2022-12-07T05:41:04;98958.53;;;21.55;61.49
35704;BME280;21820;51.112;13.762;2022-12-07T05:43:30;98952.91;;;21.68;60.97
35704;BME280;21820;51.112;13.762;2022-12-07T05:45:56;98952.44;;;21.72;61.23
35704;BME280;21820;51.112;13.762;2022-12-07T05:48:21;98946.88;;;21.75;60.60
35704;BME280;21820;51.112;13.762;2022-12-07T05:50:48;98947.72;;;21.76;60.86
35704;BME280;21820;51.112;13.762;2022-12-07T05:53:14;98945.94;;;21.76;60.96
35704;BME280;21820;51.112;13.762;2022-12-07T05:55:39;98936.56;;;21.74;60.74
35704;BME280;21820;51.112;13.762;2022-12-07T05:58:04;98928.94;;;21.80;60.58
35704;BME280;21820;51.112;13.762;2022-12-07T06:00:48;98925.28;;;21.73;60.15
35704;BME280;21820;51.112;13.762;2022-12-07T06:03:14;98931.91;;;21.85;60.55
35704;BME280;21820;51.112;13.762;2022-12-07T06:05:39;98927.19;;;21.89;59.86
35704;BME280;21820;51.112;13.762;2022-12-07T06:08:04;98927.69;;;21.92;60.27
35704;BME280;21820;51.112;13.762;2022-12-07T06:10:30;98933.44;;;21.96;60.26
35704;BME280;21820;51.112;13.762;2022-12-07T06:12:55;98931.63;;;21.96;60.13
35704;BME280;21820;51.112;13.762;2022-12-07T06:15:21;98926.13;;;22.08;60.20
35704;BME280;21820;51.112;13.762;2022-12-07T06:17:48;98930.03;;;22.12;59.86
35704;BME280;21820;51.112;13.762;2022-12-07T06:20:13;98922.00;;;22.05;59.22
35704;BME280;21820;51.112;13.762;2022-12-07T06:22:39;98925.63;;;22.12;58.70
35704;BME280;21820;51.112;13.762;2022-12-07T06:25:04;98915.00;;;22.14;58.62
35704;BME280;21820;51.112;13.762;2022-12-07T06:27:30;98920.41;;;22.12;58.84
35704;BME280;21820;51.112;13.762;2022-12-07T06:29:55;98910.91;;;22.11;59.14
35704;BME280;21820;51.112;13.762;2022-12-07T06:32:20;98917.28;;;22.09;59.76
35704;BME280;21820;51.112;13.762;2022-12-07T06:34:46;98918.09;;;22.09;59.65
35704;BME280;21820;51.112;13.762;2022-12-07T06:37:12;98901.19;;;21.95;59.29
35704;BME280;21820;51.112;13.762;2022-12-07T06:39:37;98922.00;;;22.05;59.76
35704;BME280;21820;51.112;13.762;2022-12-07T06:42:03;98922.84;;;22.06;59.26
35704;BME280;21820;51.112;13.762;2022-12-07T06:44:29;98923.78;;;21.96;59.42
35704;BME280;21820;51.112;13.762;2022-12-07T06:46:54;98925.41;;;21.89;59.89
35704;BME280;21820;51.112;13.762;2022-12-07T06:49:20;98928.63;;;21.83;60.11
35704;BME280;21820;51.112;13.762;2022-12-07T06:51:45;98928.00;;;21.81;60.06
35704;BME280;21820;51.112;13.762;2022-12-07T06:54:12;98931.34;;;21.74;60.61
35704;BME280;21820;51.112;13.762;2022-12-07T06:56:38;98923.97;;;21.69;60.59
35704;BME280;21820;51.112;13.762;2022-12-07T06:59:05;98927.06;;;21.65;60.87
35704;BME280;21820;51.112;13.762;2022-12-07T07:01:32;98925.56;;;21.62;61.05
35704;BME280;21820;51.112;13.762;2022-12-07T07:03:58;98932.22;;;21.57;61.16
35704;BME280;21820;51.112;13.762;2022-12-07T07:06:23;98928.44;;;21.51;61.39
35704;BME280;21820;51.112;13.762;2022-12-07T07:08:49;98932.66;;;21.44;61.73
35704;BME280;21820;51.112;13.762;2022-12-07T07:11:14;98941.31;;;21.45;61.92
35704;BME280;21820;51.112;13.762;2022-12-07T07:13:39;98932.97;;;21.41;61.76
35704;BME280;21820;51.112;13.762;2022-12-07T07:16:06;98937.16;;;21.34;61.29
35704;BME280;21820;51.112;13.762;2022-12-07T07:18:31;98935.53;;;21.33;61.46
35704;BME280;21820;51.112;13.762;2022-12-07T07:20:57;98942.72;;;21.31;61.72
35704;BME280;21820;51.112;13.762;2022-12-07T07:23:22;98943.69;;;21.30;61.65
35704;BME280;21820;51.112;13.762;2022-12-07T07:25:48;98945.78;;;21.27;61.86
35704;BME280;21820;51.112;13.762;2022-12-07T07:28:14;98946.91;;;21.24;62.43
35704;BME280;21820;51.112;13.762;2022-12-07T07:30:40;98948.03;;;21.22;61.81
35704;BME280;21820;51.112;13.762;2022-12-07T07:33:05;98941.31;;;21.19;62.13
35704;BME280;21820;51.112;13.762;2022-12-07T07:35:32;98952.75;;;21.18;62.53
35704;BME280;21820;51.112;13.762;2022-12-07T07:37:58;98956.31;;;21.17;62.27
35704;BME280;21820;51.112;13.762;2022-12-07T07:40:24;98942.88;;;21.12;61.94
35704;BME280;21820;51.112;13.762;2022-12-07T07:42:51;98949.16;;;21.19;61.98
35704;BME280;21820;51.112;13.762;2022-12-07T07:45:18;98959.28;;;21.22;62.30
35704;BME280;21820;51.112;13.762;2022-12-07T07:47:44;98949.50;;;21.24;62.01
35704;BME280;21820;51.112;13.762;2022-12-07T07:50:09;98951.03;;;21.27;61.80
35704;BME280;21820;51.112;13.762;2022-12-07T07:52:35;98950.56;;;21.31;61.62
35704;BME280;21820;51.112;13.762;2022-12-07T07:55:00;98948.16;;;21.38;61.80
35704;BME280;21820;51.112;13.762;2022-12-07T07:57:25;98950.13;;;21.44;61.82
35704;BME280;21820;51.112;13.762;2022-12-07T07:59:52;98950.81;;;21.46;61.41
35704;BME280;21820;51.112;13.762;2022-12-07T08:02:19;98958.50;;;21.47;61.57
35704;BME280;21820;51.112;13.762;2022-12-07T08:04:45;98957.69;;;21.47;61.13
35704;BME280;21820;51.112;13.762;2022-12-07T08:07:11;98938.81;;;21.35;61.38
35704;BME280;21820;51.112;13.762;2022-12-07T08:09:37;98966.34;;;21.47;61.82
35704;BME280;21820;51.112;13.762;2022-12-07T08:12:03;98958.19;;;21.50;61.54
35704;BME280;21820;51.112;13.762;2022-12-07T08:14:28;98960.78;;;21.50;61.54
35704;BME280;21820;51.112;13.762;2022-12-07T08:16:54;98956.91;;;21.54;61.02
35704;BME280;21820;51.112;13.762;2022-12-07T08:19:19;98949.56;;;21.58;61.51
35704;BME280;21820;51.112;13.762;2022-12-07T08:21:45;98950.09;;;21.61;60.76
35704;BME280;21820;51.112;13.762;2022-12-07T08:24:10;98951.25;;;21.67;60.98
35704;BME280;21820;51.112;13.762;2022-12-07T08:26:36;98945.84;;;21.68;60.50
35704;BME280;21820;51.112;13.762;2022-12-07T08:29:01;98949.66;;;21.74;60.84
35704;BME280;21820;51.112;13.762;2022-12-07T08:31:26;98958.03;;;21.77;60.17
35704;BME280;21820;51.112;13.762;2022-12-07T08:33:53;98943.34;;;21.76;60.46
35704;BME280;21820;51.112;13.762;2022-12-07T08:36:18;98947.94;;;21.82;60.20
35704;BME280;21820;51.112;13.762;2022-12-07T08:38:44;98953.84;;;21.84;60.03
35704;BME280;21820;51.112;13.762;2022-12-07T08:41:09;98944.03;;;21.86;60.26
35704;BME280;21820;51.112;13.762;2022-12-07T08:43:35;98938.81;;;21.86;60.56
35704;BME280;21820;51.112;13.762;2022-12-07T08:48:33;98949.03;;;21.80;60.12
35704;BME280;21820;51.112;13.762;2022-12-07T08:51:01;98958.03;;;21.77;60.58
35704;BME280;21820;51.112;13.762;2022-12-07T08:53:28;98961.50;;;21.78;60.97
35704;BME280;21820;51.112;13.762;2022-12-07T08:55:53;98954.06;;;21.73;60.97
35704;BME280;21820;51.112;13.762;2022-12-07T08:58:19;98957.34;;;21.75;60.58
35704;BME280;21820;51.112;13.762;2022-12-07T09:00:44;98953.94;;;21.75;60.72
35704;BME280;21820;51.112;13.762;2022-12-07T09:03:09;98946.06;;;21.75;60.28
35704;BME280;21820;51.112;13.762;2022-12-07T09:05:34;98955.28;;;21.79;60.80
35704;BME280;21820;51.112;13.762;2022-12-07T09:08:01;98950.19;;;21.77;60.54
35704;BME280;21820;51.112;13.762;2022-12-07T09:10:28;98946.88;;;21.75;60.99
35704;BME280;21820;51.112;13.762;2022-12-07T09:12:54;98956.09;;;21.79;60.57
35704;BME280;21820;51.112;13.762;2022-12-07T09:15:19;98939.81;;;21.68;60.86
35704;BME280;21820;51.112;13.762;2022-12-07T09:17:45;98962.97;;;21.80;60.40
35704;BME280;21820;51.112;13.762;2022-12-07T09:20:11;98955.78;;;21.82;60.29
35704;BME280;21820;51.112;13.762;2022-12-07T09:22:37;98955.09;;;21.80;60.76
35704;BME280;21820;51.112;13.762;2022-12-07T09:25:04;98953.81;;;21.76;60.70
35704;BME280;21820;51.112;13.762;2022-12-07T09:27:29;98952.44;;;21.72;60.45
35704;BME280;21820;51.112;13.762;2022-12-07T09:29:55;98954.06;;;21.73;60.44
35704;BME280;21820;51.112;13.762;2022-12-07T09:32:20;98953.69;;;21.68;60.46
35704;BME280;21820;51.112;13.762;2022-12-07T09:34:46;98951.41;;;21.65;61.13
35704;BME280;21820;51.112;13.762;2022-12-07T09:37:11;98951.72;;;21.62;60.69
35704;BME280;21820;51.112;13.762;2022-12-07T09:39:40;98949.41;;;21.59;60.89
35704;BME280;21820;51.112;13.762;2022-12-07T09:42:07;98960.88;;;21.58;61.15
35704;BME280;21820;51.112;13.762;2022-12-07T09:44:33;98956.44;;;21.59;60.88
35704;BME280;21820;51.112;13.762;2022-12-07T09:47:00;98954.81;;;21.58;61.58
35704;BME280;21820;51.112;13.762;2022-12-07T09:49:31;98957.59;;;21.56;61.50
35704;BME280;21820;51.112;13.762;2022-12-07T09:52:25;98954.28;;;21.54;61.31
35704;BME280;21820;51.112;13.762;2022-12-07T09:54:51;98953.81;;;21.59;61.14
35704;BME280;21820;51.112;13.762;2022-12-07T09:57:27;98944.34;;;21.58;60.90
35704;BME280;21820;51.112;13.762;2022-12-07T10:00:03;98946.13;;;21.57;61.17
35704;BME280;21820;51.112;13.762;2022-12-07T10:02:43;98940.22;;;21.55;61.68
35704;BME280;21820;51.112;13.762;2022-12-07T10:05:24;98947.28;;;21.55;61.12
35704;BME280;21820;51.112;13.762;2022-12-07T10:07:51;98947.72;;;21.50;61.07
35704;BME280;21820;51.112;13.762;2022-12-07T10:10:28;98928.41;;;21.43;61.73
35704;BME280;21820;51.112;13.762;2022-12-07T10:12:58;98936.25;;;21.43;61.73
35704;BME280;21820;51.112;13.762;2022-12-07T10:15:57;98915.41;;;21.34;62.19
35704;BME280;21820;51.112;13.762;2022-12-07T10:18:27;98926.06;;;21.40;62.08
35704;BME280;21820;51.112;13.762;2022-12-07T10:21:05;98920.06;;;21.40;62.19
35704;BME280;21820;51.112;13.762;2022-12-07T10:23:33;98926.75;;;21.42;61.80
35704;BME280;21820;51.112;13.762;2022-12-07T10:25:59;98914.50;;;21.43;61.76
35704;BME280;21820;51.112;13.762;2022-12-07T10:28:34;98915.19;;;21.45;61.84
35704;BME280;21820;51.112;13.762;2022-12-07T10:31:03;98915.97;;;21.45;61.52
35704;BME280;21820;51.112;13.762;2022-12-07T10:36:45;98924.34;;;21.49;61.93
35704;BME280;21820;51.112;13.762;2022-12-07T10:39:20;98911.94;;;21.51;61.65
35704;BME280;21820;51.112;13.762;2022-12-07T10:42:03;98912.59;;;21.53;61.16
35704;BME280;21820;51.112;13.762;2022-12-07T10:44:31;98907.00;;;21.48;61.13
35704;BME280;21820;51.112;13.762;2022-12-07T10:58:23;98906.00;;;21.41;61.64
35704;BME280;21820;51.112;13.762;2022-12-07T11:04:21;98913.16;;;21.39;61.94
35704;BME280;21820;51.112;13.762;2022-12-07T11:20:45;98892.63;;;21.52;61.38
35704;BME280;21820;51.112;13.762;2022-12-07T11:29:22;98896.72;;;21.46;61.72
35704;BME280;21820;51.112;13.762;2022-12-07T11:34:42;98884.47;;;21.47;61.36
35704;BME280;21820;51.112;13.762;2022-12-07T11:37:17;98870.84;;;21.35;61.62
35704;BME280;21820;51.112;13.762;2022-12-07T11:39:56;98881.69;;;21.48;61.48
35704;BME280;21820;51.112;13.762;2022-12-07T11:42:27;98888.56;;;21.49;61.66
35704;BME280;21820;51.112;13.762;2022-12-07T11:45:02;98905.59;;;21.53;61.94
35704;BME280;21820;51.112;13.762;2022-12-07T11:51:02;98893.66;;;21.59;61.20
35704;BME280;21820;51.112;13.762;2022-12-07T11:55:44;98891.41;;;21.64;61.11
35704;BME280;21820;51.112;13.762;2022-12-07T11:58:34;98881.41;;;21.59;60.85
35704;BME280;21820;51.112;13.762;2022-12-07T12:06:32;98887.63;;;21.58;61.07
35704;BME280;21820;51.112;13.762;2022-12-07T12:19:36;98876.34;;;21.58;60.94
35704;BME280;21820;51.112;13.762;2022-12-07T12:22:16;98870.28;;;21.57;61.14
35704;BME280;21820;51.112;13.762;2022-12-07T12:24:45;98877.16;;;21.58;61.84
35704;BME280;21820;51.112;13.762;2022-12-07T12:27:23;98869.00;;;21.61;61.26
35704;BME280;21820;51.112;13.762;2022-12-07T12:29:55;98868.69;;;21.64;61.31
35704;BME280;21820;51.112;13.762;2022-12-07T12:32:43;98882.28;;;21.68;61.28
35704;BME280;21820;51.112;13.762;2022-12-07T12:37:54;98873.28;;;21.70;61.42
35704;BME280;21820;51.112;13.762;2022-12-07T12:42:56;98866.72;;;21.66;61.22
35704;BME280;21820;51.112;13.762;2022-12-07T12:45:23;98859.22;;;21.63;61.18
35704;BME280;21820;51.112;13.762;2022-12-07T12:48:00;98863.59;;;21.63;61.15
35704;BME280;21820;51.112;13.762;2022-12-07T12:50:37;98871.94;;;21.58;61.12
35704;BME280;21820;51.112;13.762;2022-12-07T12:53:24;98865.38;;;21.54;61.53
35704;BME280;21820;51.112;13.762;2022-12-07T12:56:33;98862.75;;;21.54;61.75
35704;BME280;21820;51.112;13.762;2022-12-07T12:58:41;98867.00;;;21.55;61.84
35704;BME280;21820;51.112;13.762;2022-12-07T13:03:57;98871.59;;;21.53;61.40
35704;BME280;21820;51.112;13.762;2022-12-07T13:08:52;98858.19;;;21.56;61.40
35704;BME280;21820;51.112;13.762;2022-12-07T13:11:40;98858.84;;;21.58;61.23
35704;BME280;21820;51.112;13.762;2022-12-07T13:14:37;98858.69;;;21.60;61.47
35704;BME280;21820;51.112;13.762;2022-12-07T13:19:55;98868.00;;;21.62;61.63
35704;BME280;21820;51.112;13.762;2022-12-07T13:25:12;98863.09;;;21.59;61.57
35704;BME280;21820;51.112;13.762;2022-12-07T13:27:48;98867.66;;;21.57;61.83
35704;BME280;21820;51.112;13.762;2022-12-07T13:30:19;98867.63;;;21.49;61.31
35704;BME280;21820;51.112;13.762;2022-12-07T13:32:56;98881.38;;;21.51;61.48
35704;BME280;21820;51.112;13.762;2022-12-07T13:35:29;98873.03;;;21.48;61.77
35704;BME280;21820;51.112;13.762;2022-12-07T13:37:54;98862.03;;;21.44;61.50
35704;BME280;21820;51.112;13.762;2022-12-07T13:40:21;98855.69;;;21.47;61.65
35704;BME280;21820;51.112;13.762;2022-12-07T13:42:47;98865.50;;;21.45;61.56
35704;BME280;21820;51.112;13.762;2022-12-07T13:45:27;98861.06;;;21.45;61.90
35704;BME280;21820;51.112;13.762;2022-12-07T13:48:32;98858.78;;;21.50;61.54
35704;BME280;21820;51.112;13.762;2022-12-07T13:51:00;98861.06;;;21.45;60.67
35704;BME280;21820;51.112;13.762;2022-12-07T13:53:27;98859.44;;;21.44;59.19
35704;BME280;21820;51.112;13.762;2022-12-07T13:55:57;98847.16;;;21.37;58.20
35704;BME280;21820;51.112;13.762;2022-12-07T13:58:33;98847.00;;;21.38;58.17
35704;BME280;21820;51.112;13.762;2022-12-07T14:00:59;98862.91;;;21.53;58.37
35704;BME280;21820;51.112;13.762;2022-12-07T14:03:43;98865.84;;;21.50;58.71
35704;BME280;21820;51.112;13.762;2022-12-07T14:06:24;98868.63;;;21.48;58.22
35704;BME280;21820;51.112;13.762;2022-12-07T14:09:06;98866.44;;;21.44;58.94
35704;BME280;21820;51.112;13.762;2022-12-07T14:11:31;98865.81;;;21.42;58.97
35704;BME280;21820;51.112;13.762;2022-12-07T14:14:03;98862.69;;;21.38;59.80
35704;BME280;21820;51.112;13.762;2022-12-07T14:16:29;98865.28;;;21.38;60.31
35704;BME280;21820;51.112;13.762;2022-12-07T14:18:59;98871.97;;;21.33;60.28
35704;BME280;21820;51.112;13.762;2022-12-07T14:21:29;98865.91;;;21.32;60.10
35704;BME280;21820;51.112;13.762;2022-12-07T14:24:15;98867.88;;;21.30;60.74
35704;BME280;21820;51.112;13.762;2022-12-07T14:26:41;98864.28;;;21.31;60.62
35704;BME280;21820;51.112;13.762;2022-12-07T14:31:51;98857.63;;;21.37;60.20
35704;BME280;21820;51.112;13.762;2022-12-07T14:34:19;98854.00;;;21.38;60.92
35704;BME280;21820;51.112;13.762;2022-12-07T14:36:45;98828.50;;;21.32;60.90
35704;BME280;21820;51.112;13.762;2022-12-07T14:39:10;98845.38;;;21.45;60.34
35704;BME280;21820;51.112;13.762;2022-12-07T14:41:35;98847.03;;;21.46;60.57
35704;BME280;21820;51.112;13.762;2022-12-07T14:44:17;98849.66;;;21.46;60.18
35704;BME280;21820;51.112;13.762;2022-12-07T14:46:42;98846.34;;;21.44;60.94
35704;BME280;21820;51.112;13.762;2022-12-07T14:49:08;98842.41;;;21.40;60.98
35704;BME280;21820;51.112;13.762;2022-12-07T14:51:36;98843.72;;;21.36;61.00
35704;BME280;21820;51.112;13.762;2022-12-07T14:54:04;98843.34;;;21.31;60.82